Mbabane, Swaziland
Current Conditions -  °F | °C
As of 8:00 AM on Tuesday 21 Oct 2014 (Local Time) from FAKN Reporting Station
Moderate Fog Moderate Fog  
Wind Chill: 59°   Ceiling: 1000
Heat Index: 59°   Visibility: 6mi
Dew Point: 55°   Wind: 5mph
Humidity: 88%   Direction: 60°ENE
Pressure: 30.3"   Gusts: NA
Location:  26.32°S, 31.14°E
Report Text: FAKN 210600Z 06004KT 9000 VCFG FEW005 BKN010 OVC015 15/13 Q1026 NOSIG
Loading
Personal Weather Stations






























Interactive Weather Map
Tropical Storm Tracking
New forecast layout! Learn more

10-Day Weather Forecast

Advertisements
Track Severe Weather on mobile